Sigas Ingrid — VRCQ6 — position and weather

sailwx.info

Track history (hours):
 
Tides and Currents Weather Stations Pressure Air Temp Water Temp Dewpoint Dewpoint Depression Visibility Wind Speed Wind Dir Waves Ship Positions

Sigas Ingrid

Last reported at 2018-Apr-11 05:53 UTC. Time now 2018-Apr-22 14:43 UTC.
Position N 01°19' E 103°20'.
Warning: this ship's position is 11 days out of date.

Length 100 m; draft 5.6 m.

Type: Ship (hazmat cat B). MMSI: 477658800.

Date/timePositionNaut miles runAvg speedWind from/ knotsBaromVisibWave heightAir tempDewpointWater temp
2018-Apr-11 05:53N 01°19' E 103°20'613.8
2018-Apr-11 05:25N 01°15' E 103°25'512.9
2018-Apr-11 05:00N 01°13' E 103°30'5 9.7
2018-Apr-11 04:30N 01°12' E 103°35'5 9.2
2018-Apr-11 04:01N 01°12' E 103°39'4 6.8
2018-Apr-11 03:29N 01°16' E 103°39'0 0.1
2018-Apr-11 02:59N 01°16' E 103°39'0 0.0
2018-Apr-11 02:29N 01°16' E 103°39'0 0.0
2018-Apr-11 01:56N 01°16' E 103°39'0 0.0
2018-Apr-11 01:26N 01°16' E 103°39'0 0.0
2018-Apr-11 00:59N 01°16' E 103°39'0 0.0
2018-Apr-11 00:26N 01°16' E 103°39'0 0.0
2018-Apr-10 23:59N 01°16' E 103°39'0 0.0
2018-Apr-10 23:29N 01°16' E 103°39'0 0.0
2018-Apr-10 22:56N 01°16' E 103°39'0 0.0
2018-Apr-10 22:29N 01°16' E 103°39'0 0.0
2018-Apr-10 21:56N 01°16' E 103°39'0 0.0
2018-Apr-10 21:29N 01°16' E 103°39'0 0.0
2018-Apr-10 20:59N 01°16' E 103°39'0 0.0
2018-Apr-10 20:29N 01°16' E 103°39'0 0.0
2018-Apr-10 19:56N 01°16' E 103°39'0 0.0
2018-Apr-10 19:26N 01°16' E 103°39'0 0.0
2018-Apr-10 18:59N 01°16' E 103°39'0 0.0
2018-Apr-10 18:29N 01°16' E 103°39'0 0.0
2018-Apr-10 17:59N 01°16' E 103°39'0 0.0
2018-Apr-10 17:26N 01°16' E 103°39'0 0.0
2018-Apr-10 16:59N 01°16' E 103°39'0 0.0
2018-Apr-10 16:29N 01°16' E 103°39'0 0.0
2018-Apr-10 15:59N 01°16' E 103°39'0 0.0
2018-Apr-10 15:29N 01°16' E 103°39'0 0.0
2018-Apr-10 14:56N 01°16' E 103°39'0 0.0
2018-Apr-10 14:29N 01°16' E 103°39'0 0.0
2018-Apr-10 13:59N 01°16' E 103°39'0 0.0
2018-Apr-10 13:26N 01°16' E 103°39'0 0.0
2018-Apr-10 12:59N 01°16' E 103°39'0 0.0
2018-Apr-10 12:23N 01°16' E 103°39'0 0.0
2018-Apr-10 11:53N 01°16' E 103°39'0 0.0
2018-Apr-10 11:26N 01°16' E 103°39'0 0.0
2018-Apr-10 10:59N 01°16' E 103°39'0 0.0
2018-Apr-10 10:29N 01°16' E 103°39'0 0.0
2018-Apr-10 09:59N 01°16' E 103°39'0 0.0
2018-Apr-10 09:29N 01°16' E 103°39'0 0.0
2018-Apr-10 08:59N 01°16' E 103°39'0 0.0
2018-Apr-10 08:29N 01°16' E 103°39'0 0.0
2018-Apr-10 07:50N 01°16' E 103°39'0 0.0
2018-Apr-10 07:29N 01°16' E 103°39'0 0.0
2018-Apr-10 06:59N 01°16' E 103°39'0 0.0
2018-Apr-10 06:26N 01°16' E 103°39'0 0.0
2018-Apr-10 05:59N 01°16' E 103°39'0 0.0
2018-Apr-10 05:29N 01°16' E 103°39'0 0.0
2018-Apr-10 05:00N 01°16' E 103°39'3 5.6
2018-Apr-10 04:30N 01°13' E 103°41'5 9.8
2018-Apr-10 04:01N 01°17' E 103°44'2 3.1
2018-Apr-10 03:28N 01°18' E 103°43'0 0.0
2018-Apr-10 02:55N 01°18' E 103°43'0 0.0
2018-Apr-10 02:22N 01°18' E 103°43'0 0.0
2018-Apr-10 01:58N 01°18' E 103°43'0 0.0
2018-Apr-10 01:28N 01°18' E 103°43'0 0.0
2018-Apr-10 00:58N 01°18' E 103°43'0 0.0
2018-Apr-10 00:28N 01°18' E 103°43'0 0.0
2018-Apr-09 23:58N 01°18' E 103°43'0 0.0
2018-Apr-09 23:28N 01°18' E 103°43'0 0.0
2018-Apr-09 22:58N 01°18' E 103°43'0 0.0
2018-Apr-09 22:28N 01°18' E 103°43'0 0.0
2018-Apr-09 21:58N 01°18' E 103°43'0 0.0
2018-Apr-09 21:28N 01°18' E 103°43'0 0.0
2018-Apr-09 20:58N 01°18' E 103°43'0 0.0
2018-Apr-09 20:25N 01°18' E 103°43'0 0.0
2018-Apr-09 19:55N 01°18' E 103°43'0 0.0
2018-Apr-09 19:28N 01°18' E 103°43'0 0.0
2018-Apr-09 18:58N 01°18' E 103°43'0 0.0
2018-Apr-09 18:28N 01°18' E 103°43'0 0.0
2018-Apr-09 17:55N 01°18' E 103°43'0 0.0
2018-Apr-09 17:28N 01°18' E 103°43'0 0.0
2018-Apr-09 16:58N 01°18' E 103°43'0 0.0
2018-Apr-09 16:28N 01°18' E 103°43'0 0.0
2018-Apr-09 15:58N 01°18' E 103°43'0 0.0
2018-Apr-09 15:25N 01°18' E 103°43'0 0.0
2018-Apr-09 14:58N 01°18' E 103°43'0 0.0
2018-Apr-09 14:28N 01°18' E 103°43'0 0.0
2018-Apr-09 13:58N 01°18' E 103°43'0 0.0
2018-Apr-09 13:28N 01°18' E 103°43'0 0.0
2018-Apr-09 12:58N 01°18' E 103°43'0 0.0
2018-Apr-09 12:28N 01°18' E 103°43'0 0.0
2018-Apr-09 11:55N 01°18' E 103°43'0 0.0
2018-Apr-09 11:28N 01°18' E 103°43'0 0.0
2018-Apr-09 10:58N 01°18' E 103°43'0 0.0
2018-Apr-09 10:28N 01°18' E 103°43'0 0.0
2018-Apr-09 09:58N 01°18' E 103°43'0 0.0
2018-Apr-09 09:28N 01°18' E 103°43'0 0.0
2018-Apr-09 08:58N 01°18' E 103°43'0 0.0
2018-Apr-09 08:25N 01°18' E 103°43'0 0.0
2018-Apr-09 07:55N 01°18' E 103°43'0 0.0
2018-Apr-09 07:28N 01°18' E 103°43'0 0.0
2018-Apr-09 06:58N 01°18' E 103°43'0 0.0
2018-Apr-09 06:28N 01°18' E 103°43'0 0.0
2018-Apr-09 05:58N 01°18' E 103°43'0 0.0
2018-Apr-09 05:28N 01°18' E 103°43'0 0.0
2018-Apr-09 04:58N 01°18' E 103°43'0 0.0
2018-Apr-09 04:28N 01°18' E 103°43'0 0.0
2018-Apr-09 03:58N 01°18' E 103°43'0 0.0
2018-Apr-09 03:28N 01°18' E 103°43'0 0.0
2018-Apr-09 02:58N 01°18' E 103°43'0 0.0
2018-Apr-09 02:28N 01°18' E 103°43'0 1.1
2018-Apr-09 02:01N 01°18' E 103°43'3 6.7
2018-Apr-09 01:31N 01°15' E 103°45'4 8.0
2018-Apr-09 00:58N 01°12' E 103°42'0 0.0
2018-Apr-09 00:28N 01°12' E 103°42'0 0.0
2018-Apr-08 23:55N 01°12' E 103°42'0 0.1
2018-Apr-08 23:25N 01°12' E 103°42'1 1.3
2018-Apr-08 23:00N 01°12' E 103°41'5 9.5
2018-Apr-08 22:30N 01°10' E 103°46'4 8.9
2018-Apr-08 22:00N 01°11' E 103°50'4 7.6
2018-Apr-08 21:30N 01°13' E 103°53'4 8.1
2018-Apr-08 21:00N 01°15' E 103°57'  
Track history (hours):
 
Tides and Currents Weather Stations Pressure Air Temp Water Temp Dewpoint Dewpoint Depression Visibility Wind Speed Wind Dir Waves Ship Positions

Sigas Ingrid

Last reported at 2018-Apr-11 05:53 UTC. Time now 2018-Apr-22 14:43 UTC.
Position N 01°19' E 103°20'.
Warning: this ship's position is 11 days out of date.

Length 100 m; draft 5.6 m.

Type: Ship (hazmat cat B). MMSI: 477658800.

Date/timePositionNaut miles runAvg speedWind from/ knotsBaromVisibWave heightAir tempDewpointWater temp
2018-Apr-11 05:53N 01°19' E 103°20'613.8
2018-Apr-11 05:25N 01°15' E 103°25'512.9
2018-Apr-11 05:00N 01°13' E 103°30'5 9.7
2018-Apr-11 04:30N 01°12' E 103°35'5 9.2
2018-Apr-11 04:01N 01°12' E 103°39'4 6.8
2018-Apr-11 03:29N 01°16' E 103°39'0 0.1
2018-Apr-11 02:59N 01°16' E 103°39'0 0.0
2018-Apr-11 02:29N 01°16' E 103°39'0 0.0
2018-Apr-11 01:56N 01°16' E 103°39'0 0.0
2018-Apr-11 01:26N 01°16' E 103°39'0 0.0
2018-Apr-11 00:59N 01°16' E 103°39'0 0.0
2018-Apr-11 00:26N 01°16' E 103°39'0 0.0
2018-Apr-10 23:59N 01°16' E 103°39'0 0.0
2018-Apr-10 23:29N 01°16' E 103°39'0 0.0
2018-Apr-10 22:56N 01°16' E 103°39'0 0.0
2018-Apr-10 22:29N 01°16' E 103°39'0 0.0
2018-Apr-10 21:56N 01°16' E 103°39'0 0.0
2018-Apr-10 21:29N 01°16' E 103°39'0 0.0
2018-Apr-10 20:59N 01°16' E 103°39'0 0.0
2018-Apr-10 20:29N 01°16' E 103°39'0 0.0
2018-Apr-10 19:56N 01°16' E 103°39'0 0.0
2018-Apr-10 19:26N 01°16' E 103°39'0 0.0
2018-Apr-10 18:59N 01°16' E 103°39'0 0.0
2018-Apr-10 18:29N 01°16' E 103°39'0 0.0
2018-Apr-10 17:59N 01°16' E 103°39'0 0.0
2018-Apr-10 17:26N 01°16' E 103°39'0 0.0
2018-Apr-10 16:59N 01°16' E 103°39'0 0.0
2018-Apr-10 16:29N 01°16' E 103°39'0 0.0
2018-Apr-10 15:59N 01°16' E 103°39'0 0.0
2018-Apr-10 15:29N 01°16' E 103°39'0 0.0
2018-Apr-10 14:56N 01°16' E 103°39'0 0.0
2018-Apr-10 14:29N 01°16' E 103°39'0 0.0
2018-Apr-10 13:59N 01°16' E 103°39'0 0.0
2018-Apr-10 13:26N 01°16' E 103°39'0 0.0
2018-Apr-10 12:59N 01°16' E 103°39'0 0.0
2018-Apr-10 12:23N 01°16' E 103°39'0 0.0
2018-Apr-10 11:53N 01°16' E 103°39'0 0.0
2018-Apr-10 11:26N 01°16' E 103°39'0 0.0
2018-Apr-10 10:59N 01°16' E 103°39'0 0.0
2018-Apr-10 10:29N 01°16' E 103°39'0 0.0
2018-Apr-10 09:59N 01°16' E 103°39'0 0.0
2018-Apr-10 09:29N 01°16' E 103°39'0 0.0
2018-Apr-10 08:59N 01°16' E 103°39'0 0.0
2018-Apr-10 08:29N 01°16' E 103°39'0 0.0
2018-Apr-10 07:50N 01°16' E 103°39'0 0.0
2018-Apr-10 07:29N 01°16' E 103°39'0 0.0
2018-Apr-10 06:59N 01°16' E 103°39'0 0.0
2018-Apr-10 06:26N 01°16' E 103°39'0 0.0
2018-Apr-10 05:59N 01°16' E 103°39'0 0.0
2018-Apr-10 05:29N 01°16' E 103°39'0 0.0
2018-Apr-10 05:00N 01°16' E 103°39'3 5.6
2018-Apr-10 04:30N 01°13' E 103°41'5 9.8
2018-Apr-10 04:01N 01°17' E 103°44'2 3.1
2018-Apr-10 03:28N 01°18' E 103°43'0 0.0
2018-Apr-10 02:55N 01°18' E 103°43'0 0.0
2018-Apr-10 02:22N 01°18' E 103°43'0 0.0
2018-Apr-10 01:58N 01°18' E 103°43'0 0.0
2018-Apr-10 01:28N 01°18' E 103°43'0 0.0
2018-Apr-10 00:58N 01°18' E 103°43'0 0.0
2018-Apr-10 00:28N 01°18' E 103°43'0 0.0
2018-Apr-09 23:58N 01°18' E 103°43'0 0.0
2018-Apr-09 23:28N 01°18' E 103°43'0 0.0
2018-Apr-09 22:58N 01°18' E 103°43'0 0.0
2018-Apr-09 22:28N 01°18' E 103°43'0 0.0
2018-Apr-09 21:58N 01°18' E 103°43'0 0.0
2018-Apr-09 21:28N 01°18' E 103°43'0 0.0
2018-Apr-09 20:58N 01°18' E 103°43'0 0.0
2018-Apr-09 20:25N 01°18' E 103°43'0 0.0
2018-Apr-09 19:55N 01°18' E 103°43'0 0.0
2018-Apr-09 19:28N 01°18' E 103°43'0 0.0
2018-Apr-09 18:58N 01°18' E 103°43'0 0.0
2018-Apr-09 18:28N 01°18' E 103°43'0 0.0
2018-Apr-09 17:55N 01°18' E 103°43'0 0.0
2018-Apr-09 17:28N 01°18' E 103°43'0 0.0
2018-Apr-09 16:58N 01°18' E 103°43'0 0.0
2018-Apr-09 16:28N 01°18' E 103°43'0 0.0
2018-Apr-09 15:58N 01°18' E 103°43'0 0.0
2018-Apr-09 15:25N 01°18' E 103°43'0 0.0
2018-Apr-09 14:58N 01°18' E 103°43'0 0.0
2018-Apr-09 14:28N 01°18' E 103°43'0 0.0
2018-Apr-09 13:58N 01°18' E 103°43'0 0.0
2018-Apr-09 13:28N 01°18' E 103°43'0 0.0
2018-Apr-09 12:58N 01°18' E 103°43'0 0.0
2018-Apr-09 12:28N 01°18' E 103°43'0 0.0
2018-Apr-09 11:55N 01°18' E 103°43'0 0.0
2018-Apr-09 11:28N 01°18' E 103°43'0 0.0
2018-Apr-09 10:58N 01°18' E 103°43'0 0.0
2018-Apr-09 10:28N 01°18' E 103°43'0 0.0
2018-Apr-09 09:58N 01°18' E 103°43'0 0.0
2018-Apr-09 09:28N 01°18' E 103°43'0 0.0
2018-Apr-09 08:58N 01°18' E 103°43'0 0.0
2018-Apr-09 08:25N 01°18' E 103°43'0 0.0
2018-Apr-09 07:55N 01°18' E 103°43'0 0.0
2018-Apr-09 07:28N 01°18' E 103°43'0 0.0
2018-Apr-09 06:58N 01°18' E 103°43'0 0.0
2018-Apr-09 06:28N 01°18' E 103°43'0 0.0
2018-Apr-09 05:58N 01°18' E 103°43'0 0.0
2018-Apr-09 05:28N 01°18' E 103°43'0 0.0
2018-Apr-09 04:58N 01°18' E 103°43'0 0.0
2018-Apr-09 04:28N 01°18' E 103°43'0 0.0
2018-Apr-09 03:58N 01°18' E 103°43'0 0.0
2018-Apr-09 03:28N 01°18' E 103°43'0 0.0
2018-Apr-09 02:58N 01°18' E 103°43'0 0.0
2018-Apr-09 02:28N 01°18' E 103°43'0 1.1
2018-Apr-09 02:01N 01°18' E 103°43'3 6.7
2018-Apr-09 01:31N 01°15' E 103°45'4 8.0
2018-Apr-09 00:58N 01°12' E 103°42'0 0.0
2018-Apr-09 00:28N 01°12' E 103°42'0 0.0
2018-Apr-08 23:55N 01°12' E 103°42'0 0.1
2018-Apr-08 23:25N 01°12' E 103°42'1 1.3
2018-Apr-08 23:00N 01°12' E 103°41'5 9.5
2018-Apr-08 22:30N 01°10' E 103°46'4 8.9
2018-Apr-08 22:00N 01°11' E 103°50'4 7.6
2018-Apr-08 21:30N 01°13' E 103°53'4 8.1
2018-Apr-08 21:00N 01°15' E 103°57'  

Dump ship's entire track history